createdAt,value
2022-08-19T00:00:39.608Z,6.93
2022-08-19T00:03:08.135Z,10.87
2022-08-19T00:05:35.917Z,6.37
2022-08-19T00:08:03.859Z,8.10
2022-08-19T00:10:31.641Z,7.47
2022-08-19T00:12:59.052Z,6.73
2022-08-19T00:15:26.560Z,6.57
2022-08-19T00:17:55.077Z,7.07
2022-08-19T00:20:23.249Z,9.17
2022-08-19T00:22:50.735Z,7.17
2022-08-19T00:25:18.315Z,7.73
2022-08-19T00:27:58.081Z,7.53
2022-08-19T00:30:25.401Z,7.63
2022-08-19T00:32:53.432Z,12.53
2022-08-19T00:35:20.871Z,6.70
2022-08-19T00:37:49.928Z,6.43
2022-08-19T00:40:19.579Z,5.33
2022-08-19T00:42:47.126Z,5.37
2022-08-19T00:45:21.215Z,10.63
2022-08-19T00:47:48.611Z,6.57
2022-08-19T00:50:19.365Z,8.77
2022-08-19T00:52:51.283Z,8.33
2022-08-19T00:55:29.815Z,9.87
2022-08-19T00:58:05.850Z,6.60
2022-08-19T01:00:36.430Z,7.50
2022-08-19T01:03:10.627Z,5.93
2022-08-19T01:05:40.463Z,8.30
2022-08-19T01:08:26.565Z,10.83
2022-08-19T01:10:57.451Z,9.80
2022-08-19T01:13:28.792Z,10.83
2022-08-19T01:16:14.523Z,8.93
2022-08-19T01:18:43.879Z,7.97
2022-08-19T01:21:20.239Z,11.70
2022-08-19T01:23:47.763Z,11.00
2022-08-19T01:26:20.822Z,11.60
2022-08-19T01:28:52.266Z,8.23
2022-08-19T01:31:26.957Z,8.60
2022-08-19T01:33:57.978Z,10.17
2022-08-19T01:36:36.479Z,10.83
2022-08-19T01:39:07.753Z,11.93
2022-08-19T01:41:36.080Z,11.37
2022-08-19T01:44:17.915Z,9.10
2022-08-19T01:46:48.875Z,12.80
2022-08-19T01:49:18.199Z,13.77
2022-08-19T01:51:45.865Z,6.60
2022-08-19T01:54:27.029Z,12.87
2022-08-19T01:57:04.151Z,12.00
2022-08-19T01:59:32.765Z,5.60
2022-08-19T02:02:00.071Z,8.90
2022-08-19T02:04:28.099Z,10.93
2022-08-19T02:06:55.535Z,12.27
2022-08-19T02:09:22.927Z,9.13
2022-08-19T02:11:50.517Z,10.00
2022-08-19T02:14:17.811Z,6.50
2022-08-19T02:16:45.207Z,10.60
2022-08-19T02:19:12.482Z,10.20
2022-08-19T02:21:39.819Z,5.00
2022-08-19T02:24:07.642Z,6.67
2022-08-19T02:26:35.132Z,9.77
2022-08-19T02:29:02.777Z,8.50
2022-08-19T02:31:30.293Z,10.67
2022-08-19T02:33:58.356Z,9.03
2022-08-19T02:36:26.739Z,7.93
2022-08-19T02:38:55.524Z,8.70
2022-08-19T02:41:31.979Z,8.90
2022-08-19T02:44:29.968Z,5.63
2022-08-19T02:46:51.837Z,9.97
2022-08-19T02:49:20.623Z,7.23
2022-08-19T02:51:48.976Z,11.00
2022-08-19T02:54:16.887Z,8.70
2022-08-19T02:56:45.044Z,5.77
2022-08-19T02:59:12.732Z,7.60
2022-08-19T03:01:42.258Z,7.53
2022-08-19T03:04:12.515Z,10.77
2022-08-19T03:06:42.321Z,9.30
2022-08-19T03:09:10.087Z,10.17
2022-08-19T03:11:38.368Z,5.87
2022-08-19T03:14:07.279Z,5.53
2022-08-19T03:16:44.412Z,6.97
2022-08-19T03:19:12.618Z,8.30
2022-08-19T03:21:39.960Z,10.43
2022-08-19T03:24:10.160Z,6.60
2022-08-19T03:26:43.300Z,10.50
2022-08-19T03:29:13.210Z,5.70
2022-08-19T03:31:50.961Z,13.13
2022-08-19T03:34:27.719Z,14.33
2022-08-19T03:36:56.608Z,6.53
2022-08-19T03:39:26.135Z,10.57
2022-08-19T03:42:38.187Z,10.43
2022-08-19T03:44:59.973Z,7.77
2022-08-19T03:47:27.382Z,8.87
2022-08-19T03:49:54.673Z,9.07
2022-08-19T03:52:22.084Z,8.70
2022-08-19T03:54:49.520Z,9.50
2022-08-19T03:57:16.775Z,8.23
2022-08-19T03:59:45.188Z,7.93
2022-08-19T04:02:13.379Z,7.10
2022-08-19T04:04:44.019Z,8.93
2022-08-19T04:07:16.875Z,11.67
2022-08-19T04:09:44.640Z,11.73
2022-08-19T04:12:12.078Z,9.83
2022-08-19T04:14:40.536Z,8.80
2022-08-19T04:17:08.040Z,8.77
2022-08-19T04:19:37.201Z,8.47
2022-08-19T04:22:05.657Z,15.47
2022-08-19T04:24:34.395Z,8.33
2022-08-19T04:27:03.591Z,7.30
2022-08-19T04:29:31.372Z,11.37
2022-08-19T04:32:17.812Z,10.40
2022-08-19T04:35:01.417Z,10.83
2022-08-19T04:37:35.206Z,6.70
2022-08-19T04:40:24.245Z,13.73
2022-08-19T04:42:52.087Z,8.30
2022-08-19T04:45:19.659Z,10.30
2022-08-19T04:47:58.178Z,13.10
2022-08-19T04:50:27.720Z,15.30
2022-08-19T04:52:56.461Z,6.27
2022-08-19T04:55:26.559Z,7.33
2022-08-19T04:57:55.246Z,9.70
2022-08-19T05:00:23.085Z,6.07
2022-08-19T05:03:09.470Z,5.30
2022-08-19T05:05:45.126Z,6.97
2022-08-19T05:08:31.306Z,7.50
2022-08-19T05:10:59.389Z,7.43
2022-08-19T05:13:27.850Z,7.10
2022-08-19T05:15:57.681Z,7.87
2022-08-19T05:18:43.481Z,7.10
2022-08-19T05:21:31.810Z,8.00
2022-08-19T05:23:59.311Z,8.57
2022-08-19T05:26:27.403Z,9.07
2022-08-19T05:28:56.403Z,6.53
2022-08-19T05:31:23.840Z,13.40
2022-08-19T05:33:51.443Z,8.37
2022-08-19T05:36:20.628Z,7.80
2022-08-19T05:38:48.533Z,12.13
2022-08-19T05:41:17.475Z,10.50
2022-08-19T05:43:45.178Z,10.03
2022-08-19T05:46:19.699Z,9.63
2022-08-19T05:48:57.582Z,7.87
2022-08-19T05:51:29.164Z,10.40
2022-08-19T05:53:56.778Z,9.73
2022-08-19T05:56:24.241Z,9.23
2022-08-19T05:58:51.558Z,6.60
2022-08-19T06:01:19.716Z,7.30
2022-08-19T06:03:48.860Z,6.67
2022-08-19T06:06:16.990Z,6.77
2022-08-19T06:08:49.391Z,7.00
2022-08-19T06:11:39.017Z,6.87
2022-08-19T06:14:16.458Z,8.73
2022-08-19T06:16:44.962Z,11.83
2022-08-19T06:19:16.898Z,8.07
2022-08-19T06:21:48.416Z,7.30
2022-08-19T06:24:20.046Z,8.47
2022-08-19T06:26:49.706Z,7.57
2022-08-19T06:29:24.029Z,11.03
2022-08-19T06:31:53.732Z,6.90
2022-08-19T06:37:07.176Z,7.97
2022-08-19T06:39:39.471Z,8.30
2022-08-19T06:42:11.002Z,7.30
2022-08-19T06:44:42.880Z,7.80
2022-08-19T06:47:23.678Z,7.17
2022-08-19T06:50:05.432Z,11.03
2022-08-19T06:52:36.854Z,7.00
2022-08-19T06:55:06.993Z,8.17
2022-08-19T06:57:35.157Z,7.10
2022-08-19T07:00:03.871Z,6.50
2022-08-19T07:02:31.207Z,6.93
2022-08-19T07:04:59.130Z,6.23
2022-08-19T07:07:26.635Z,6.83
2022-08-19T07:09:58.416Z,6.73
2022-08-19T07:12:35.629Z,6.00
2022-08-19T07:15:05.787Z,8.77
2022-08-19T07:17:34.521Z,5.80
2022-08-19T07:20:05.554Z,6.37
2022-08-19T07:22:35.934Z,5.87
2022-08-19T07:25:04.892Z,5.13
2022-08-19T07:27:33.496Z,5.53
2022-08-19T07:30:01.762Z,5.63
2022-08-19T07:35:13.515Z,5.77
2022-08-19T07:37:45.261Z,5.47
2022-08-19T07:40:13.334Z,5.70
2022-08-19T07:42:40.633Z,5.47
2022-08-19T07:45:09.139Z,5.27
2022-08-19T07:47:49.397Z,7.60
2022-08-19T07:50:20.762Z,6.57
2022-08-19T07:52:50.577Z,5.13
2022-08-19T07:55:42.683Z,5.40
2022-08-19T07:58:09.819Z,5.53
2022-08-19T08:00:37.225Z,6.67
2022-08-19T08:03:04.731Z,6.77
2022-08-19T08:05:51.027Z,5.57
2022-08-19T08:08:36.843Z,5.03
2022-08-19T08:11:07.735Z,5.93
2022-08-19T08:13:36.242Z,5.13
2022-08-19T08:16:04.117Z,5.30
2022-08-19T08:18:32.244Z,4.93
2022-08-19T08:20:59.755Z,6.60
2022-08-19T08:23:27.527Z,6.13
2022-08-19T08:25:58.323Z,6.10
2022-08-19T08:28:29.515Z,5.57
2022-08-19T08:30:58.620Z,5.53
2022-08-19T08:33:32.818Z,5.73
2022-08-19T08:36:05.707Z,5.73
2022-08-19T08:38:39.139Z,7.27
2022-08-19T08:41:42.048Z,5.80
2022-08-19T08:44:32.585Z,6.47
2022-08-19T08:47:04.283Z,6.43
2022-08-19T08:50:05.012Z,5.40
2022-08-19T08:52:43.695Z,5.53
2022-08-19T08:55:21.794Z,5.22
2022-08-19T08:57:50.063Z,8.10
2022-08-19T09:00:26.000Z,6.43
2022-08-19T09:02:55.363Z,9.70
2022-08-19T09:05:26.280Z,7.18
2022-08-19T09:08:12.046Z,5.85
2022-08-19T09:10:47.169Z,11.10
2022-08-19T09:13:30.277Z,11.18
2022-08-19T09:16:28.781Z,5.22
2022-08-19T09:19:01.837Z,6.82
2022-08-19T09:21:33.409Z,11.30
2022-08-19T09:24:03.310Z,7.68
2022-08-19T09:26:47.330Z,9.23
2022-08-19T09:29:22.447Z,5.93
2022-08-19T09:31:51.167Z,5.97
2022-08-19T09:34:22.084Z,7.05
2022-08-19T09:36:54.585Z,12.57
2022-08-19T09:39:22.793Z,11.95
2022-08-19T09:41:51.131Z,11.23
2022-08-19T09:44:21.386Z,8.32
2022-08-19T09:47:08.627Z,9.18
2022-08-19T09:49:36.099Z,9.45
2022-08-19T09:52:04.151Z,8.35
2022-08-19T09:54:31.630Z,9.68
2022-08-19T09:57:01.371Z,12.88
2022-08-19T09:59:31.612Z,5.70
2022-08-19T10:02:03.659Z,8.93
2022-08-19T10:04:56.783Z,8.55
2022-08-19T10:07:29.037Z,5.45
2022-08-19T10:10:07.987Z,7.93
2022-08-19T10:12:36.500Z,6.97
2022-08-19T10:15:05.901Z,8.50
2022-08-19T10:17:36.244Z,11.60
2022-08-19T10:20:05.483Z,6.07
2022-08-19T10:22:33.115Z,10.95
2022-08-19T10:25:00.417Z,8.18
2022-08-19T10:27:28.085Z,8.13
2022-08-19T10:29:59.741Z,6.82
2022-08-19T10:32:33.832Z,11.40
2022-08-19T10:35:06.190Z,8.93
2022-08-19T10:37:33.772Z,9.27
2022-08-19T10:40:03.426Z,7.85
2022-08-19T10:42:32.200Z,7.78
2022-08-19T10:44:59.865Z,7.18
2022-08-19T10:47:31.840Z,10.35
2022-08-19T10:50:18.322Z,10.88
2022-08-19T10:52:50.041Z,6.30
2022-08-19T10:55:39.745Z,14.40
2022-08-19T10:58:15.959Z,18.38
2022-08-19T11:00:44.796Z,21.38
2022-08-19T11:03:12.462Z,27.38
2022-08-19T11:05:40.559Z,13.30
2022-08-19T11:08:22.163Z,11.82
2022-08-19T11:10:54.707Z,12.55
2022-08-19T11:13:24.358Z,12.88
2022-08-19T11:16:07.330Z,14.18
2022-08-19T11:18:40.710Z,11.95
2022-08-19T11:21:24.494Z,13.57
2022-08-19T11:23:54.974Z,16.83
2022-08-19T11:26:22.891Z,15.98
2022-08-19T11:28:55.494Z,17.75
2022-08-19T11:31:29.152Z,14.60
2022-08-19T11:34:03.687Z,7.28
2022-08-19T11:36:33.489Z,10.98
2022-08-19T11:39:01.745Z,11.10
2022-08-19T11:41:29.270Z,8.65
2022-08-19T11:43:57.248Z,10.23
2022-08-19T11:46:26.627Z,13.10
2022-08-19T11:48:54.825Z,11.88
2022-08-19T11:51:25.653Z,7.35
2022-08-19T11:53:54.801Z,8.25
2022-08-19T11:56:22.788Z,9.68
2022-08-19T11:58:50.280Z,8.95
2022-08-19T12:01:19.473Z,11.40
2022-08-19T12:03:49.112Z,7.28
2022-08-19T12:06:26.486Z,11.63
2022-08-19T12:08:54.633Z,10.40
2022-08-19T12:11:22.866Z,8.85
2022-08-19T12:13:50.994Z,9.07
2022-08-19T12:16:21.441Z,8.70
2022-08-19T12:18:49.510Z,9.00
2022-08-19T12:21:23.224Z,8.50
2022-08-19T12:23:55.639Z,6.70
2022-08-19T12:26:25.747Z,8.07
2022-08-19T12:28:53.701Z,10.60
2022-08-19T12:31:21.881Z,9.05
2022-08-19T12:33:49.657Z,5.57
2022-08-19T12:36:18.853Z,12.02
2022-08-19T12:38:46.308Z,8.90
2022-08-19T12:41:19.633Z,14.45
2022-08-19T12:43:50.341Z,11.15
2022-08-19T12:46:19.707Z,9.80
2022-08-19T12:48:55.259Z,8.93
2022-08-19T12:51:23.058Z,11.23
2022-08-19T12:53:50.849Z,15.00
2022-08-19T12:56:22.976Z,17.00
2022-08-19T12:58:50.956Z,17.67
2022-08-19T13:01:22.973Z,14.07
2022-08-19T13:03:53.631Z,12.98
2022-08-19T13:06:22.363Z,14.80
2022-08-19T13:08:50.163Z,10.00
2022-08-19T13:11:21.234Z,8.07
2022-08-19T13:13:51.363Z,12.50
2022-08-19T13:16:21.105Z,10.43
2022-08-19T13:18:48.858Z,11.23
2022-08-19T13:21:16.295Z,9.32
2022-08-19T13:23:44.405Z,10.05
2022-08-19T13:26:13.759Z,9.20
2022-08-19T13:29:01.344Z,7.82
2022-08-19T13:31:49.631Z,10.32
2022-08-19T13:34:19.405Z,9.23
2022-08-19T13:36:46.927Z,11.80
2022-08-19T13:39:14.254Z,12.67
2022-08-19T13:41:49.682Z,10.47
2022-08-19T13:44:19.347Z,11.63
2022-08-19T13:46:49.519Z,10.13
2022-08-19T13:49:21.890Z,10.73
2022-08-19T13:51:49.379Z,8.13
2022-08-19T13:54:16.732Z,7.83
2022-08-19T13:56:45.760Z,7.97
2022-08-19T13:59:13.464Z,9.87
2022-08-19T14:01:42.278Z,10.67
2022-08-19T14:04:09.751Z,8.70
2022-08-19T14:06:37.423Z,11.67
2022-08-19T14:09:05.608Z,10.67
2022-08-19T14:11:32.907Z,12.68
2022-08-19T14:14:18.937Z,12.70
2022-08-19T14:16:46.378Z,13.10
2022-08-19T14:19:13.863Z,8.32
2022-08-19T14:21:42.402Z,11.68
2022-08-19T14:24:10.270Z,7.82
2022-08-19T14:26:37.722Z,12.38
2022-08-19T14:29:05.218Z,12.88
2022-08-19T14:31:32.498Z,6.10
2022-08-19T14:34:00.457Z,10.98
2022-08-19T14:36:27.944Z,10.57
2022-08-19T14:38:55.420Z,7.65
2022-08-19T14:41:24.684Z,6.00
2022-08-19T14:43:54.339Z,6.65
2022-08-19T14:46:26.036Z,5.22
2022-08-19T14:48:56.716Z,8.18
2022-08-19T14:51:26.092Z,9.20
2022-08-19T14:53:53.781Z,8.63
2022-08-19T14:56:25.073Z,8.77
2022-08-19T14:58:53.513Z,10.57
2022-08-19T15:01:23.543Z,7.32
2022-08-19T15:03:53.875Z,10.00
2022-08-19T15:06:22.004Z,8.57
2022-08-19T15:08:50.555Z,7.65
2022-08-19T15:11:22.063Z,8.85
2022-08-19T15:13:50.940Z,9.57
2022-08-19T15:16:21.193Z,12.13
2022-08-19T15:18:51.997Z,7.80
2022-08-19T15:21:26.446Z,6.53
2022-08-19T15:23:57.247Z,8.68
2022-08-19T15:26:27.612Z,7.35
2022-08-19T15:28:55.404Z,11.45
2022-08-19T15:31:27.987Z,6.25
2022-08-19T15:33:59.229Z,8.57
2022-08-19T15:36:27.743Z,7.40
2022-08-19T15:38:56.749Z,7.73
2022-08-19T15:41:28.090Z,13.37
2022-08-19T15:43:59.671Z,6.73
2022-08-19T15:46:31.084Z,9.57
2022-08-19T15:49:00.357Z,7.50
2022-08-19T15:51:35.746Z,7.20
2022-08-19T15:54:06.894Z,8.80
2022-08-19T15:56:57.988Z,7.47
2022-08-19T15:59:47.449Z,7.27
2022-08-19T16:02:35.276Z,8.97
2022-08-19T16:05:28.836Z,10.10
2022-08-19T16:07:56.964Z,7.85
2022-08-19T16:10:27.101Z,5.97
2022-08-19T16:12:57.757Z,7.43
2022-08-19T16:15:30.579Z,6.90
2022-08-19T16:17:58.798Z,11.77
2022-08-19T16:20:27.446Z,9.20
2022-08-19T16:22:59.131Z,8.50
2022-08-19T16:25:29.920Z,10.67
2022-08-19T16:28:07.953Z,6.38
2022-08-19T16:30:38.115Z,13.60
2022-08-19T16:33:06.717Z,6.93
2022-08-19T16:35:34.296Z,10.43
2022-08-19T16:38:02.701Z,9.43
2022-08-19T16:40:30.205Z,9.60
2022-08-19T16:42:57.675Z,8.50
2022-08-19T16:45:25.383Z,9.27
2022-08-19T16:47:53.196Z,5.90
2022-08-19T16:50:39.044Z,8.67
2022-08-19T16:53:09.874Z,9.00
2022-08-19T16:55:37.685Z,13.63
2022-08-19T16:58:05.061Z,15.07
2022-08-19T17:00:32.393Z,13.27
2022-08-19T17:03:14.861Z,11.90
2022-08-19T17:05:44.516Z,13.73
2022-08-19T17:08:12.175Z,8.47
2022-08-19T17:10:40.155Z,6.63
2022-08-19T17:13:07.947Z,10.13
2022-08-19T17:15:35.306Z,11.00
2022-08-19T17:18:04.628Z,14.00
2022-08-19T17:20:33.442Z,6.43
2022-08-19T17:23:01.139Z,10.07
2022-08-19T17:25:34.060Z,6.53
2022-08-19T17:28:13.864Z,9.10
2022-08-19T17:30:41.698Z,10.53
2022-08-19T17:33:09.444Z,9.50
2022-08-19T17:35:37.614Z,11.33
2022-08-19T17:38:08.614Z,6.93
2022-08-19T17:40:38.185Z,8.43
2022-08-19T17:43:07.491Z,8.33
2022-08-19T17:45:36.440Z,6.53
2022-08-19T17:48:05.037Z,7.90
2022-08-19T17:50:33.277Z,7.60
2022-08-19T17:53:00.963Z,10.63
2022-08-19T17:55:28.927Z,9.90
2022-08-19T17:57:56.415Z,9.37
2022-08-19T18:00:24.387Z,12.67
2022-08-19T18:02:57.051Z,11.77
2022-08-19T18:05:29.815Z,10.93
2022-08-19T18:07:59.178Z,13.97
2022-08-19T18:10:34.906Z,8.77
2022-08-19T18:13:02.843Z,12.33
2022-08-19T18:15:44.868Z,10.50
2022-08-19T18:18:14.798Z,13.70
2022-08-19T18:20:44.004Z,12.60
2022-08-19T18:23:44.405Z,9.03
2022-08-19T18:25:58.776Z,11.33
2022-08-19T18:31:11.047Z,13.00
2022-08-19T18:33:44.156Z,6.70
2022-08-19T18:36:12.373Z,9.93
2022-08-19T18:38:58.156Z,7.77
2022-08-19T18:41:44.108Z,12.73
2022-08-19T18:44:29.849Z,12.67
2022-08-19T18:47:15.670Z,12.33
2022-08-19T18:49:43.381Z,11.77
2022-08-19T18:52:10.822Z,8.63
2022-08-19T18:54:38.254Z,10.57
2022-08-19T18:57:05.735Z,10.37
2022-08-19T18:59:33.144Z,10.77
2022-08-19T19:02:02.396Z,8.00
2022-08-19T19:04:36.664Z,15.70
2022-08-19T19:07:09.031Z,7.80
2022-08-19T19:09:38.261Z,10.70
2022-08-19T19:12:10.805Z,9.40
2022-08-19T19:14:49.188Z,11.00
2022-08-19T19:17:17.445Z,11.73
2022-08-19T19:19:44.766Z,13.20
2022-08-19T19:22:16.963Z,10.07
2022-08-19T19:24:44.549Z,11.70
2022-08-19T19:27:13.863Z,12.47
2022-08-19T19:29:42.425Z,11.87
2022-08-19T19:32:38.669Z,8.90
2022-08-19T19:35:08.009Z,11.07
2022-08-19T19:37:35.418Z,10.40
2022-08-19T19:40:03.491Z,13.10
2022-08-19T19:42:30.840Z,10.90
2022-08-19T19:44:58.639Z,12.70
2022-08-19T19:47:28.132Z,9.70
2022-08-19T19:50:14.802Z,11.80
2022-08-19T19:52:45.663Z,12.03
2022-08-19T19:55:31.334Z,12.80
2022-08-19T19:57:58.647Z,10.87
2022-08-19T20:00:26.149Z,14.93
2022-08-19T20:02:56.602Z,11.27
2022-08-19T20:05:24.823Z,9.40
2022-08-19T20:08:12.443Z,10.20
2022-08-19T20:10:41.568Z,19.27
2022-08-19T20:13:10.924Z,10.80
2022-08-19T20:15:42.743Z,9.13
2022-08-19T20:18:13.396Z,11.70
2022-08-19T20:20:41.627Z,15.03
2022-08-19T20:23:09.278Z,13.53
2022-08-19T20:25:38.896Z,15.17
2022-08-19T20:28:06.253Z,11.03
2022-08-19T20:30:33.690Z,11.00
2022-08-19T20:33:01.973Z,8.33
2022-08-19T20:35:29.583Z,10.93
2022-08-19T20:37:59.811Z,12.37
2022-08-19T20:40:28.403Z,14.57
2022-08-19T20:42:56.825Z,8.90
2022-08-19T20:45:32.608Z,12.10
2022-08-19T20:48:02.686Z,11.10
2022-08-19T20:50:31.941Z,13.17
2022-08-19T20:52:59.494Z,9.07
2022-08-19T20:55:28.331Z,10.40
2022-08-19T20:57:56.498Z,11.97
2022-08-19T21:00:24.027Z,6.03
2022-08-19T21:02:51.303Z,12.73
2022-08-19T21:05:18.973Z,10.30
2022-08-19T21:07:46.549Z,12.43
2022-08-19T21:10:15.113Z,12.23
2022-08-19T21:12:44.303Z,16.13
2022-08-19T21:15:12.093Z,7.47
2022-08-19T21:17:40.000Z,11.43
2022-08-19T21:20:09.516Z,13.70
2022-08-19T21:22:36.847Z,11.70
2022-08-19T21:25:05.623Z,10.20
2022-08-19T21:27:33.006Z,10.97
2022-08-19T21:30:00.276Z,10.63
2022-08-19T21:32:27.970Z,15.50
2022-08-19T21:34:55.867Z,13.03
2022-08-19T21:37:24.944Z,16.10
2022-08-19T21:39:54.210Z,14.23
2022-08-19T21:42:22.884Z,12.50
2022-08-19T21:44:50.522Z,11.53
2022-08-19T21:47:17.935Z,15.60
2022-08-19T21:49:45.221Z,10.10
2022-08-19T21:52:13.361Z,14.23
2022-08-19T21:54:40.715Z,15.53
2022-08-19T21:57:10.121Z,10.07
2022-08-19T21:59:44.128Z,12.67
2022-08-19T22:02:21.335Z,8.77
2022-08-19T22:04:53.513Z,8.67
2022-08-19T22:07:22.269Z,6.27
2022-08-19T22:09:51.660Z,11.47
2022-08-19T22:12:29.084Z,4.40
2022-08-19T22:14:57.915Z,4.70
2022-08-19T22:17:27.398Z,5.83
2022-08-19T22:19:56.230Z,5.27
2022-08-19T22:22:26.352Z,2.80
2022-08-19T22:24:59.825Z,3.17
2022-08-19T22:27:28.116Z,3.43
2022-08-19T22:29:55.455Z,3.10
2022-08-19T22:32:26.806Z,2.70
2022-08-19T22:34:59.042Z,5.63
2022-08-19T22:37:29.483Z,1.70
2022-08-19T22:39:56.833Z,2.07
2022-08-19T22:42:25.320Z,2.10
2022-08-19T22:44:59.060Z,2.03
2022-08-19T22:47:27.185Z,2.00
2022-08-19T22:49:59.515Z,2.00
2022-08-19T22:52:26.955Z,2.20
2022-08-19T22:54:58.962Z,2.53
2022-08-19T22:57:27.378Z,3.17
2022-08-19T22:59:56.194Z,2.20
2022-08-19T23:02:38.390Z,3.67
2022-08-19T23:05:10.505Z,2.47
2022-08-19T23:07:38.287Z,3.67
2022-08-19T23:10:09.864Z,2.20
2022-08-19T23:12:40.875Z,3.23
2022-08-19T23:15:18.727Z,3.43
2022-08-19T23:17:46.661Z,3.73
2022-08-19T23:20:15.867Z,3.17
2022-08-19T23:22:46.173Z,2.30
2022-08-19T23:25:20.411Z,2.93
2022-08-19T23:28:06.986Z,2.60
2022-08-19T23:30:38.287Z,2.37
2022-08-19T23:33:13.937Z,2.57
2022-08-19T23:35:41.796Z,2.63
2022-08-19T23:38:10.298Z,5.80
2022-08-19T23:40:38.823Z,2.70
2022-08-19T23:43:08.089Z,5.00
2022-08-19T23:45:51.269Z,2.40
2022-08-19T23:48:18.785Z,2.63
2022-08-19T23:50:46.886Z,2.47
2022-08-19T23:53:15.663Z,2.80
2022-08-19T23:55:44.972Z,2.70
2022-08-19T23:58:13.746Z,2.90
